Time,TemperatureF,DewpointF,PressureIn,WindDirection,WindDirectionDegrees,WindSpeedMPH,WindSpeedGustMPH,Humidity,HourlyPrecipIn,Conditions,Clouds,dailyrainin,SoftwareType,DateUTC
2013-01-23 00:00:00,11.8,1.3,30.10,West,281,1.0,3.0,62,0.00,,,0.00,WUHU216DAVISWMX,2013-01-23 05:00:00,
2013-01-23 00:05:00,11.6,0.4,30.10,NW,320,1.0,3.0,60,0.00,,,0.00,WUHU216DAVISWMX,2013-01-23 05:05:00,
2013-01-23 00:10:00,11.5,0.7,30.10,NW,320,1.0,3.0,61,0.00,,,0.00,WUHU216DAVISWMX,2013-01-23 05:10:00,
2013-01-23 00:15:00,11.4,0.2,30.10,NW,320,0.0,2.0,60,0.00,,,0.00,WUHU216DAVISWMX,2013-01-23 05:15:00,
2013-01-23 00:20:00,11.4,0.2,30.10,NNW,330,1.0,2.0,60,0.00,,,0.00,WUHU216DAVISWMX,2013-01-23 05:20:00,
2013-01-23 00:25:00,11.4,0.2,30.10,NNW,330,1.0,2.0,60,0.00,,,0.00,WUHU216DAVISWMX,2013-01-23 05:25:00,
2013-01-23 00:30:00,11.4,-0.1,30.10,NW,325,2.0,6.0,59,0.00,,,0.00,WUHU216DAVISWMX,2013-01-23 05:30:00,
2013-01-23 00:35:00,11.3,-1.0,30.10,NW,324,1.0,6.0,57,0.00,,,0.00,WUHU216DAVISWMX,2013-01-23 05:35:00,
2013-01-23 00:40:00,11.2,-1.1,30.10,WNW,296,2.0,4.0,57,0.00,,,0.00,WUHU216DAVISWMX,2013-01-23 05:40:00,
2013-01-23 00:45:00,11.2,-0.7,30.10,West,263,2.0,5.0,58,0.00,,,0.00,WUHU216DAVISWMX,2013-01-23 05:45:00,
2013-01-23 00:50:00,11.2,-0.7,30.10,West,269,1.0,5.0,58,0.00,,,0.00,WUHU216DAVISWMX,2013-01-23 05:50:00,
2013-01-23 00:55:00,11.2,-0.7,30.10,North,349,1.0,4.0,58,0.00,,,0.00,WUHU216DAVISWMX,2013-01-23 05:55:00,
2013-01-23 01:00:00,11.3,-0.6,30.10,NNW,348,2.0,4.0,58,0.00,,,0.00,WUHU216DAVISWMX,2013-01-23 06:00:00,
2013-01-23 01:05:00,11.2,-1.1,30.10,NW,325,3.0,4.0,57,0.00,,,0.00,WUHU216DAVISWMX,2013-01-23 06:05:00,
2013-01-23 01:10:00,11.1,-1.2,30.10,North,350,1.0,4.0,57,0.00,,,0.00,WUHU216DAVISWMX,2013-01-23 06:10:00,
2013-01-23 01:15:00,11.0,-1.3,30.10,WNW,303,1.0,3.0,57,0.00,,,0.00,WUHU216DAVISWMX,2013-01-23 06:15:00,
2013-01-23 01:20:00,11.1,-1.2,30.10,NNW,332,1.0,5.0,57,0.00,,,0.00,WUHU216DAVISWMX,2013-01-23 06:20:00,
2013-01-23 01:25:00,11.0,-1.3,30.11,NNW,332,1.0,5.0,57,0.00,,,0.00,WUHU216DAVISWMX,2013-01-23 06:25:00,
2013-01-23 01:30:00,10.9,-1.4,30.11,NNW,332,0.0,3.0,57,0.00,,,0.00,WUHU216DAVISWMX,2013-01-23 06:30:00,
2013-01-23 01:35:00,10.9,-0.6,30.11,NNW,332,1.0,3.0,59,0.00,,,0.00,WUHU216DAVISWMX,2013-01-23 06:35:00,
2013-01-23 01:40:00,10.9,-0.6,30.11,NNW,332,0.0,2.0,59,0.00,,,0.00,WUHU216DAVISWMX,2013-01-23 06:40:00,
2013-01-23 01:45:00,10.8,-0.7,30.11,NNW,332,0.0,2.0,59,0.00,,,0.00,WUHU216DAVISWMX,2013-01-23 06:45:00,
2013-01-23 01:50:00,10.8,-0.7,30.11,NNW,332,1.0,1.0,59,0.00,,,0.00,WUHU216DAVISWMX,2013-01-23 06:50:00,
2013-01-23 01:55:00,10.6,-0.9,30.11,NNW,332,0.0,2.0,59,0.00,,,0.00,WUHU216DAVISWMX,2013-01-23 06:55:00,
2013-01-23 02:00:00,10.6,-0.9,30.11,NNW,332,0.0,3.0,59,0.00,,,0.00,WUHU216DAVISWMX,2013-01-23 07:00:00,
2013-01-23 02:05:00,10.4,-1.1,30.12,NNW,332,0.0,3.0,59,0.00,,,0.00,WUHU216DAVISWMX,2013-01-23 07:05:00,
2013-01-23 02:10:00,10.4,-1.1,30.12,NNW,332,1.0,2.0,59,0.00,,,0.00,WUHU216DAVISWMX,2013-01-23 07:10:00,
2013-01-23 02:15:00,10.3,-0.8,30.12,NNW,332,0.0,2.0,60,0.00,,,0.00,WUHU216DAVISWMX,2013-01-23 07:15:00,
2013-01-23 02:20:00,10.5,-0.6,30.12,NNW,332,0.0,2.0,60,0.00,,,0.00,WUHU216DAVISWMX,2013-01-23 07:20:00,
2013-01-23 02:25:00,10.3,-0.5,30.12,WSW,242,3.0,3.0,61,0.00,,,0.00,WUHU216DAVISWMX,2013-01-23 07:25:00,
2013-01-23 02:30:00,10.3,-0.1,30.12,WSW,248,0.0,3.0,62,0.00,,,0.00,WUHU216DAVISWMX,2013-01-23 07:30:00,
2013-01-23 02:35:00,10.3,-0.5,30.12,WSW,248,0.0,3.0,61,0.00,,,0.00,WUHU216DAVISWMX,2013-01-23 07:35:00,
2013-01-23 02:40:00,10.1,-0.3,30.12,WSW,248,0.0,0.0,62,0.00,,,0.00,WUHU216DAVISWMX,2013-01-23 07:40:00,
2013-01-23 02:45:00,10.0,-0.4,30.12,WSW,248,0.0,0.0,62,0.00,,,0.00,WUHU216DAVISWMX,2013-01-23 07:45:00,
2013-01-23 02:50:00,10.1,-0.3,30.12,WSW,253,1.0,4.0,62,0.00,,,0.00,WUHU216DAVISWMX,2013-01-23 07:50:00,
2013-01-23 02:55:00,10.0,0.0,30.12,WSW,253,0.0,4.0,63,0.00,,,0.00,WUHU216DAVISWMX,2013-01-23 07:55:00,
2013-01-23 03:00:00,9.9,-0.1,30.13,WSW,249,1.0,4.0,63,0.00,,,0.00,WUHU216DAVISWMX,2013-01-23 08:00:00,
2013-01-23 03:05:00,10.0,0.0,30.12,WSW,238,2.0,4.0,63,0.00,,,0.00,WUHU216DAVISWMX,2013-01-23 08:05:00,
2013-01-23 03:10:00,9.8,-0.2,30.12,WSW,255,1.0,4.0,63,0.00,,,0.00,WUHU216DAVISWMX,2013-01-23 08:10:00,
2013-01-23 03:15:00,9.8,-0.2,30.12,WSW,251,2.0,4.0,63,0.00,,,0.00,WUHU216DAVISWMX,2013-01-23 08:15:00,
2013-01-23 03:20:00,9.8,0.4,30.13,WSW,251,2.0,4.0,65,0.00,,,0.00,WUHU216DAVISWMX,2013-01-23 08:20:00,
2013-01-23 03:25:00,9.8,0.4,30.12,SW,225,1.0,4.0,65,0.00,,,0.00,WUHU216DAVISWMX,2013-01-23 08:25:00,
2013-01-23 03:30:00,9.6,0.6,30.12,WSW,256,1.0,6.0,66,0.00,,,0.00,WUHU216DAVISWMX,2013-01-23 08:30:00,
2013-01-23 03:35:00,9.7,0.7,30.12,WSW,241,1.0,6.0,66,0.00,,,0.00,WUHU216DAVISWMX,2013-01-23 08:35:00,
2013-01-23 03:40:00,9.7,0.7,30.13,West,263,0.0,4.0,66,0.00,,,0.00,WUHU216DAVISWMX,2013-01-23 08:40:00,
2013-01-23 03:45:00,9.8,0.8,30.13,WNW,289,2.0,4.0,66,0.00,,,0.00,WUHU216DAVISWMX,2013-01-23 08:45:00,
2013-01-23 03:50:00,9.6,0.6,30.13,WSW,240,1.0,3.0,66,0.00,,,0.00,WUHU216DAVISWMX,2013-01-23 08:50:00,
2013-01-23 03:55:00,9.7,0.7,30.13,West,262,2.0,6.0,66,0.00,,,0.00,WUHU216DAVISWMX,2013-01-23 08:55:00,
2013-01-23 04:00:00,9.6,0.6,30.13,WSW,247,2.0,6.0,66,0.00,,,0.00,WUHU216DAVISWMX,2013-01-23 09:00:00,
2013-01-23 04:05:00,9.5,0.5,30.13,West,262,2.0,4.0,66,0.00,,,0.00,WUHU216DAVISWMX,2013-01-23 09:05:00,
2013-01-23 04:10:00,9.6,0.6,30.13,West,263,2.0,4.0,66,0.00,,,0.00,WUHU216DAVISWMX,2013-01-23 09:10:00,
2013-01-23 04:15:00,9.5,0.1,30.13,WNW,291,1.0,4.0,65,0.00,,,0.00,WUHU216DAVISWMX,2013-01-23 09:15:00,
2013-01-23 04:21:00,9.4,-0.3,30.13,West,271,3.0,4.0,64,0.00,,,0.00,WUHU216DAVISWMX,2013-01-23 09:21:00,
2013-01-23 04:26:00,9.2,-1.5,30.13,West,261,3.0,8.0,61,0.00,,,0.00,WUHU216DAVISWMX,2013-01-23 09:26:00,
2013-01-23 04:31:00,9.1,-1.9,30.13,WNW,285,1.0,8.0,60,0.00,,,0.00,WUHU216DAVISWMX,2013-01-23 09:31:00,
2013-01-23 04:36:00,9.1,-2.3,30.13,SW,214,2.0,5.0,59,0.00,,,0.00,WUHU216DAVISWMX,2013-01-23 09:36:00,
2013-01-23 04:41:00,9.2,-2.2,30.13,West,276,2.0,5.0,59,0.00,,,0.00,WUHU216DAVISWMX,2013-01-23 09:41:00,
2013-01-23 04:46:00,9.0,-2.4,30.14,NW,317,2.0,4.0,59,0.00,,,0.00,WUHU216DAVISWMX,2013-01-23 09:46:00,
2013-01-23 04:51:00,9.0,-2.4,30.14,NW,313,2.0,4.0,59,0.00,,,0.00,WUHU216DAVISWMX,2013-01-23 09:51:00,
2013-01-23 04:56:00,8.9,-2.9,30.14,West,264,5.0,6.0,58,0.00,,,0.00,WUHU216DAVISWMX,2013-01-23 09:56:00,
2013-01-23 05:01:00,8.8,-2.6,30.14,West,268,1.0,6.0,59,0.00,,,0.00,WUHU216DAVISWMX,2013-01-23 10:01:00,
2013-01-23 05:06:00,8.9,-2.5,30.14,West,269,3.0,5.0,59,0.00,,,0.00,WUHU216DAVISWMX,2013-01-23 10:06:00,
2013-01-23 05:11:00,8.7,-3.0,30.14,West,269,2.0,4.0,58,0.00,,,0.00,WUHU216DAVISWMX,2013-01-23 10:11:00,
2013-01-23 05:16:00,8.6,-3.1,30.14,WSW,240,1.0,5.0,58,0.00,,,0.00,WUHU216DAVISWMX,2013-01-23 10:16:00,
2013-01-23 05:21:00,8.6,-3.1,30.14,West,273,2.0,5.0,58,0.00,,,0.00,WUHU216DAVISWMX,2013-01-23 10:21:00,
2013-01-23 05:26:00,8.5,-3.2,30.14,WNW,285,2.0,6.0,58,0.00,,,0.00,WUHU216DAVISWMX,2013-01-23 10:26:00,
2013-01-23 05:31:00,8.4,-3.7,30.15,SSW,199,0.0,6.0,57,0.00,,,0.00,WUHU216DAVISWMX,2013-01-23 10:31:00,
2013-01-23 05:36:00,8.4,-3.7,30.15,NNW,331,2.0,3.0,57,0.00,,,0.00,WUHU216DAVISWMX,2013-01-23 10:36:00,
2013-01-23 05:41:00,8.4,-3.7,30.15,NW,321,3.0,5.0,57,0.00,,,0.00,WUHU216DAVISWMX,2013-01-23 10:41:00,
2013-01-23 05:46:00,8.4,-3.7,30.15,NW,317,4.0,6.0,57,0.00,,,0.00,WUHU216DAVISWMX,2013-01-23 10:46:00,
2013-01-23 05:51:00,8.4,-4.1,30.15,NW,309,2.0,6.0,56,0.00,,,0.00,WUHU216DAVISWMX,2013-01-23 10:51:00,
2013-01-23 05:56:00,8.4,-4.1,30.16,WSW,258,3.0,5.0,56,0.00,,,0.00,WUHU216DAVISWMX,2013-01-23 10:56:00,
2013-01-23 06:01:00,8.2,-4.7,30.16,WSW,240,2.0,3.0,55,0.00,,,0.00,WUHU216DAVISWMX,2013-01-23 11:01:00,
2013-01-23 06:06:00,8.3,-4.2,30.16,NW,306,1.0,3.0,56,0.00,,,0.00,WUHU216DAVISWMX,2013-01-23 11:06:00,
2013-01-23 06:11:00,8.3,-4.2,30.16,WNW,303,2.0,3.0,56,0.00,,,0.00,WUHU216DAVISWMX,2013-01-23 11:11:00,
2013-01-23 06:16:00,8.2,-4.7,30.16,WNW,303,2.0,2.0,55,0.00,,,0.00,WUHU216DAVISWMX,2013-01-23 11:16:00,
2013-01-23 06:21:00,8.1,-4.7,30.16,NW,309,1.0,3.0,55,0.00,,,0.00,WUHU216DAVISWMX,2013-01-23 11:21:00,
2013-01-23 06:26:00,8.0,-4.8,30.16,WNW,302,1.0,4.0,55,0.00,,,0.00,WUHU216DAVISWMX,2013-01-23 11:26:00,
2013-01-23 06:31:00,8.1,-5.1,30.16,NW,307,2.0,7.0,54,0.00,,,0.00,WUHU216DAVISWMX,2013-01-23 11:31:00,
2013-01-23 06:36:00,8.0,-4.8,30.17,NNW,332,0.0,7.0,55,0.00,,,0.00,WUHU216DAVISWMX,2013-01-23 11:36:00,
2013-01-23 06:41:00,7.9,-4.9,30.17,NNW,332,0.0,3.0,55,0.00,,,0.00,WUHU216DAVISWMX,2013-01-23 11:41:00,
2013-01-23 06:46:00,8.0,-4.1,30.17,NNW,332,0.0,1.0,57,0.00,,,0.00,WUHU216DAVISWMX,2013-01-23 11:46:00,
2013-01-23 06:51:00,7.9,-5.3,30.17,NNW,332,1.0,3.0,54,0.00,,,0.00,WUHU216DAVISWMX,2013-01-23 11:51:00,
2013-01-23 06:56:00,7.9,-4.9,30.17,SW,220,1.0,3.0,55,0.00,,,0.00,WUHU216DAVISWMX,2013-01-23 11:56:00,
2013-01-23 07:01:00,7.7,-5.1,30.17,SW,220,0.0,3.0,55,0.00,,,0.00,WUHU216DAVISWMX,2013-01-23 12:01:00,
2013-01-23 07:06:00,7.6,-4.8,30.17,West,260,3.0,6.0,56,0.00,,,0.00,WUHU216DAVISWMX,2013-01-23 12:06:00,
2013-01-23 07:11:00,7.6,-4.5,30.17,West,263,3.0,6.0,57,0.00,,,0.00,WUHU216DAVISWMX,2013-01-23 12:11:00,
2013-01-23 07:16:00,7.7,-5.1,30.17,SSW,205,2.0,4.0,55,0.00,,,0.00,WUHU216DAVISWMX,2013-01-23 12:16:00,
2013-01-23 07:21:00,7.6,-5.2,30.17,West,281,3.0,4.0,55,0.00,,,0.00,WUHU216DAVISWMX,2013-01-23 12:21:00,
2013-01-23 07:26:00,7.6,-5.2,30.17,WNW,302,4.0,4.0,55,0.00,,,0.00,WUHU216DAVISWMX,2013-01-23 12:26:00,
2013-01-23 07:31:00,7.5,-5.7,30.16,West,268,3.0,6.0,54,0.00,,,0.00,WUHU216DAVISWMX,2013-01-23 12:31:00,
2013-01-23 07:36:00,7.4,-5.4,30.17,West,267,0.0,6.0,55,0.00,,,0.00,WUHU216DAVISWMX,2013-01-23 12:36:00,
2013-01-23 07:42:00,7.5,-5.3,30.17,West,262,3.0,5.0,55,0.00,,,0.00,WUHU216DAVISWMX,2013-01-23 12:42:00,
2013-01-23 07:47:00,7.4,-5.8,30.16,WNW,286,3.0,5.0,54,0.00,,,0.00,WUHU216DAVISWMX,2013-01-23 12:47:00,
2013-01-23 07:52:00,7.5,-5.7,30.16,WNW,294,1.0,5.0,54,0.00,,,0.00,WUHU216DAVISWMX,2013-01-23 12:52:00,
2013-01-23 07:57:00,7.6,-5.6,30.16,NW,325,2.0,5.0,54,0.00,,,0.00,WUHU216DAVISWMX,2013-01-23 12:57:00,
2013-01-23 08:02:00,7.9,-5.3,30.17,West,281,1.0,5.0,54,0.00,,,0.00,WUHU216DAVISWMX,2013-01-23 13:02:00,
2013-01-23 08:07:00,7.8,-5.8,30.17,WSW,257,2.0,8.0,53,0.00,,,0.00,WUHU216DAVISWMX,2013-01-23 13:07:00,
2013-01-23 08:12:00,7.9,-5.3,30.17,WNW,303,4.0,8.0,54,0.00,,,0.00,WUHU216DAVISWMX,2013-01-23 13:12:00,
2013-01-23 08:17:00,8.3,-5.3,30.17,WNW,302,5.0,7.0,53,0.00,,,0.00,WUHU216DAVISWMX,2013-01-23 13:17:00,
2013-01-23 08:22:00,8.5,-5.2,30.17,WSW,255,2.0,7.0,53,0.00,,,0.00,WUHU216DAVISWMX,2013-01-23 13:22:00,
2013-01-23 08:27:00,8.7,-5.4,30.17,NNW,332,3.0,8.0,52,0.00,,,0.00,WUHU216DAVISWMX,2013-01-23 13:27:00,
2013-01-23 08:32:00,9.0,-5.1,30.17,NNW,331,4.0,8.0,52,0.00,,,0.00,WUHU216DAVISWMX,2013-01-23 13:32:00,
2013-01-23 08:37:00,9.3,-5.2,30.17,NW,307,2.0,8.0,51,0.00,,,0.00,WUHU216DAVISWMX,2013-01-23 13:37:00,
2013-01-23 08:42:00,9.2,-5.3,30.17,NNW,329,5.0,8.0,51,0.00,,,0.00,WUHU216DAVISWMX,2013-01-23 13:42:00,
2013-01-23 08:47:00,9.5,-5.1,30.17,NW,312,3.0,5.0,51,0.00,,,0.00,WUHU216DAVISWMX,2013-01-23 13:47:00,
2013-01-23 08:52:00,9.6,-5.0,30.16,NNW,333,6.0,6.0,51,0.00,,,0.00,WUHU216DAVISWMX,2013-01-23 13:52:00,
2013-01-23 08:57:00,9.8,-4.8,30.16,NNW,340,4.0,6.0,51,0.00,,,0.00,WUHU216DAVISWMX,2013-01-23 13:57:00,
2013-01-23 09:02:00,10.1,-5.3,30.16,NW,323,4.0,5.0,49,0.00,,,0.00,WUHU216DAVISWMX,2013-01-23 14:02:00,
2013-01-23 09:07:00,10.4,-4.6,30.16,NNW,329,1.0,5.0,50,0.00,,,0.00,WUHU216DAVISWMX,2013-01-23 14:07:00,
2013-01-23 09:12:00,10.5,-5.0,30.16,NW,312,5.0,6.0,49,0.00,,,0.00,WUHU216DAVISWMX,2013-01-23 14:12:00,
2013-01-23 09:17:00,10.6,-5.3,30.16,NW,314,4.0,7.0,48,0.00,,,0.00,WUHU216DAVISWMX,2013-01-23 14:17:00,
2013-01-23 09:22:00,10.7,-5.7,30.17,NNW,335,4.0,7.0,47,0.00,,,0.00,WUHU216DAVISWMX,2013-01-23 14:22:00,
2013-01-23 09:27:00,10.6,-5.8,30.17,NNW,331,8.0,11.0,47,0.00,,,0.00,WUHU216DAVISWMX,2013-01-23 14:27:00,
2013-01-23 09:32:00,10.9,-5.0,30.17,West,266,2.0,11.0,48,0.00,,,0.00,WUHU216DAVISWMX,2013-01-23 14:32:00,
2013-01-23 09:37:00,11.0,-5.4,30.17,WNW,291,2.0,12.0,47,0.00,,,0.00,WUHU216DAVISWMX,2013-01-23 14:37:00,
2013-01-23 09:42:00,11.0,-5.4,30.17,NNW,331,2.0,12.0,47,0.00,,,0.00,WUHU216DAVISWMX,2013-01-23 14:42:00,
2013-01-23 09:47:00,11.1,-5.8,30.17,NNW,333,5.0,8.0,46,0.00,,,0.00,WUHU216DAVISWMX,2013-01-23 14:47:00,
2013-01-23 09:52:00,11.0,-5.4,30.17,WNW,295,2.0,8.0,47,0.00,,,0.00,WUHU216DAVISWMX,2013-01-23 14:52:00,
2013-01-23 09:57:00,11.1,-5.3,30.17,NW,326,2.0,8.0,47,0.00,,,0.00,WUHU216DAVISWMX,2013-01-23 14:57:00,
2013-01-23 10:02:00,11.2,-5.2,30.17,WNW,286,1.0,5.0,47,0.00,,,0.00,WUHU216DAVISWMX,2013-01-23 15:02:00,
2013-01-23 10:07:00,11.3,-5.1,30.17,NNW,327,3.0,9.0,47,0.00,,,0.00,WUHU216DAVISWMX,2013-01-23 15:07:00,
2013-01-23 10:12:00,11.3,-5.1,30.17,NNW,327,4.0,9.0,47,0.00,,,0.00,WUHU216DAVISWMX,2013-01-23 15:12:00,
2013-01-23 10:17:00,11.5,-4.9,30.17,North,350,1.0,7.0,47,0.00,,,0.00,WUHU216DAVISWMX,2013-01-23 15:17:00,
2013-01-23 10:22:00,11.8,-4.7,30.17,NNW,332,4.0,8.0,47,0.00,,,0.00,WUHU216DAVISWMX,2013-01-23 15:22:00,
2013-01-23 10:27:00,11.6,-5.3,30.17,North,351,2.0,9.0,46,0.00,,,0.00,WUHU216DAVISWMX,2013-01-23 15:27:00,
2013-01-23 10:32:00,11.6,-5.3,30.16,WNW,289,4.0,9.0,46,0.00,,,0.00,WUHU216DAVISWMX,2013-01-23 15:32:00,
2013-01-23 10:37:00,11.7,-5.2,30.16,West,273,3.0,8.0,46,0.00,,,0.00,WUHU216DAVISWMX,2013-01-23 15:37:00,
2013-01-23 10:42:00,11.8,-5.1,30.16,NNW,331,5.0,10.0,46,0.00,,,0.00,WUHU216DAVISWMX,2013-01-23 15:42:00,
2013-01-23 10:47:00,11.9,-5.0,30.16,WSW,245,2.0,10.0,46,0.00,,,0.00,WUHU216DAVISWMX,2013-01-23 15:47:00,
2013-01-23 10:52:00,12.1,-4.9,30.15,NW,319,3.0,10.0,46,0.00,,,0.00,WUHU216DAVISWMX,2013-01-23 15:52:00,
2013-01-23 10:57:00,12.1,-4.9,30.15,NW,305,3.0,10.0,46,0.00,,,0.00,WUHU216DAVISWMX,2013-01-23 15:57:00,
2013-01-23 11:02:00,12.3,-5.6,30.15,NNW,333,9.0,9.0,44,0.00,,,0.00,WUHU216DAVISWMX,2013-01-23 16:02:00,
2013-01-23 11:07:00,12.4,-4.6,30.15,West,259,4.0,10.0,46,0.00,,,0.00,WUHU216DAVISWMX,2013-01-23 16:07:00,
2013-01-23 11:12:00,12.6,-4.9,30.15,WNW,303,3.0,10.0,45,0.00,,,0.00,WUHU216DAVISWMX,2013-01-23 16:12:00,
2013-01-23 11:17:00,12.9,-4.1,30.15,WSW,247,2.0,8.0,46,0.00,,,0.00,WUHU216DAVISWMX,2013-01-23 16:17:00,
2013-01-23 11:22:00,12.9,-4.6,30.15,NW,315,7.0,7.0,45,0.00,,,0.00,WUHU216DAVISWMX,2013-01-23 16:22:00,
2013-01-23 11:27:00,13.0,-5.0,30.15,WSW,255,10.0,16.0,44,0.00,,,0.00,WUHU216DAVISWMX,2013-01-23 16:27:00,
2013-01-23 11:32:00,13.0,-5.0,30.14,SW,232,6.0,16.0,44,0.00,,,0.00,WUHU216DAVISWMX,2013-01-23 16:32:00,
2013-01-23 11:37:00,12.9,-6.6,30.14,NW,313,5.0,9.0,41,0.00,,,0.00,WUHU216DAVISWMX,2013-01-23 16:37:00,
2013-01-23 11:42:00,13.0,-6.5,30.13,NNW,330,9.0,11.0,41,0.00,,,0.00,WUHU216DAVISWMX,2013-01-23 16:42:00,
2013-01-23 11:47:00,13.3,-5.2,30.13,NW,314,5.0,11.0,43,0.00,,,0.00,WUHU216DAVISWMX,2013-01-23 16:47:00,
2013-01-23 11:52:00,13.5,-5.0,30.13,WNW,301,3.0,10.0,43,0.00,,,0.00,WUHU216DAVISWMX,2013-01-23 16:52:00,
2013-01-23 11:57:00,13.6,-4.9,30.13,West,281,2.0,10.0,43,0.00,,,0.00,WUHU216DAVISWMX,2013-01-23 16:57:00,
2013-01-23 12:02:00,14.0,-4.6,30.13,NW,326,6.0,8.0,43,0.00,,,0.00,WUHU216DAVISWMX,2013-01-23 17:02:00,
2013-01-23 12:07:00,13.8,-5.7,30.13,WNW,297,3.0,11.0,41,0.00,,,0.00,WUHU216DAVISWMX,2013-01-23 17:07:00,
2013-01-23 12:12:00,13.7,-5.8,30.12,WNW,295,5.0,11.0,41,0.00,,,0.00,WUHU216DAVISWMX,2013-01-23 17:12:00,
2013-01-23 12:18:00,13.8,-5.7,30.12,West,264,3.0,10.0,41,0.00,,,0.00,WUHU216DAVISWMX,2013-01-23 17:18:00,
2013-01-23 12:23:00,14.0,-6.1,30.12,WNW,291,3.0,15.0,40,0.00,,,0.00,WUHU216DAVISWMX,2013-01-23 17:23:00,
2013-01-23 12:28:00,14.0,-6.1,30.12,West,277,5.0,15.0,40,0.00,,,0.00,WUHU216DAVISWMX,2013-01-23 17:28:00,
2013-01-23 12:33:00,14.2,-4.4,30.12,NNW,327,9.0,9.0,43,0.00,,,0.00,WUHU216DAVISWMX,2013-01-23 17:33:00,
2013-01-23 12:38:00,14.3,-5.8,30.12,NW,321,2.0,9.0,40,0.00,,,0.00,WUHU216DAVISWMX,2013-01-23 17:38:00,
2013-01-23 12:43:00,14.4,-5.2,30.11,NW,325,1.0,8.0,41,0.00,,,0.00,WUHU216DAVISWMX,2013-01-23 17:43:00,
2013-01-23 12:48:00,14.5,-5.1,30.11,NW,316,0.0,9.0,41,0.00,,,0.00,WUHU216DAVISWMX,2013-01-23 17:48:00,
2013-01-23 12:53:00,14.8,-4.8,30.11,WSW,256,2.0,9.0,41,0.00,,,0.00,WUHU216DAVISWMX,2013-01-23 17:53:00,
2013-01-23 12:58:00,14.8,-5.4,30.11,NNE,19,6.0,13.0,40,0.00,,,0.00,WUHU216DAVISWMX,2013-01-23 17:58:00,
2013-01-23 13:03:00,14.6,-6.1,30.11,NNW,328,5.0,13.0,39,0.00,,,0.00,WUHU216DAVISWMX,2013-01-23 18:03:00,
2013-01-23 13:08:00,14.5,-5.6,30.11,WSW,256,3.0,10.0,40,0.00,,,0.00,WUHU216DAVISWMX,2013-01-23 18:08:00,
2013-01-23 13:13:00,14.7,-4.9,30.11,North,3,2.0,10.0,41,0.00,,,0.00,WUHU216DAVISWMX,2013-01-23 18:13:00,
2013-01-23 13:18:00,14.7,-6.0,30.11,NW,311,6.0,9.0,39,0.00,,,0.00,WUHU216DAVISWMX,2013-01-23 18:18:00,
2013-01-23 13:23:00,14.8,-5.4,30.11,WNW,297,4.0,12.0,40,0.00,,,0.00,WUHU216DAVISWMX,2013-01-23 18:23:00,
2013-01-23 13:28:00,14.8,-5.9,30.11,NNE,16,1.0,12.0,39,0.00,,,0.00,WUHU216DAVISWMX,2013-01-23 18:28:00,
2013-01-23 13:33:00,14.8,-6.4,30.11,North,357,4.0,11.0,38,0.00,,,0.00,WUHU216DAVISWMX,2013-01-23 18:33:00,
2013-01-23 13:38:00,14.5,-6.7,30.11,NW,323,0.0,14.0,38,0.00,,,0.00,WUHU216DAVISWMX,2013-01-23 18:38:00,
2013-01-23 13:43:00,14.6,-6.6,30.11,North,352,3.0,14.0,38,0.00,,,0.00,WUHU216DAVISWMX,2013-01-23 18:43:00,
2013-01-23 13:48:00,14.4,-7.9,30.11,NNW,335,10.0,10.0,36,0.00,,,0.00,WUHU216DAVISWMX,2013-01-23 18:48:00,
2013-01-23 13:53:00,14.2,-7.0,30.11,NW,326,4.0,11.0,38,0.00,,,0.00,WUHU216DAVISWMX,2013-01-23 18:53:00,
2013-01-23 13:58:00,14.4,-7.3,30.11,North,359,3.0,11.0,37,0.00,,,0.00,WUHU216DAVISWMX,2013-01-23 18:58:00,
2013-01-23 14:03:00,14.4,-6.3,30.11,WNW,300,2.0,8.0,39,0.00,,,0.00,WUHU216DAVISWMX,2013-01-23 19:03:00,
2013-01-23 14:08:00,14.5,-5.6,30.11,NW,319,2.0,8.0,40,0.00,,,0.00,WUHU216DAVISWMX,2013-01-23 19:08:00,
2013-01-23 14:13:00,14.5,-7.3,30.11,NNW,335,6.0,10.0,37,0.00,,,0.00,WUHU216DAVISWMX,2013-01-23 19:13:00,
2013-01-23 14:18:00,14.4,-7.3,30.11,NW,324,4.0,10.0,37,0.00,,,0.00,WUHU216DAVISWMX,2013-01-23 19:18:00,
2013-01-23 14:23:00,14.4,-6.8,30.11,NNW,333,4.0,9.0,38,0.00,,,0.00,WUHU216DAVISWMX,2013-01-23 19:23:00,
2013-01-23 14:28:00,14.5,-6.2,30.11,NNW,339,7.0,12.0,39,0.00,,,0.00,WUHU216DAVISWMX,2013-01-23 19:28:00,
2013-01-23 14:33:00,14.6,-5.5,30.12,NNW,330,3.0,12.0,40,0.00,,,0.00,WUHU216DAVISWMX,2013-01-23 19:33:00,
2013-01-23 14:38:00,14.6,-5.5,30.12,NNW,327,3.0,9.0,40,0.00,,,0.00,WUHU216DAVISWMX,2013-01-23 19:38:00,
2013-01-23 14:43:00,14.7,-5.4,30.12,WNW,298,5.0,8.0,40,0.00,,,0.00,WUHU216DAVISWMX,2013-01-23 19:43:00,
2013-01-23 14:48:00,14.7,-6.0,30.12,NNW,336,3.0,11.0,39,0.00,,,0.00,WUHU216DAVISWMX,2013-01-23 19:48:00,
2013-01-23 14:53:00,14.7,-6.0,30.13,NNW,332,5.0,11.0,39,0.00,,,0.00,WUHU216DAVISWMX,2013-01-23 19:53:00,
2013-01-23 14:58:00,14.6,-6.1,30.13,NNW,330,6.0,11.0,39,0.00,,,0.00,WUHU216DAVISWMX,2013-01-23 19:58:00,
2013-01-23 15:03:00,14.5,-6.7,30.12,NNW,340,6.0,8.0,38,0.00,,,0.00,WUHU216DAVISWMX,2013-01-23 20:03:00,
2013-01-23 15:08:00,14.3,-6.9,30.12,NW,318,3.0,10.0,38,0.00,,,0.00,WUHU216DAVISWMX,2013-01-23 20:08:00,
2013-01-23 15:13:00,14.3,-6.9,30.12,NNW,336,4.0,10.0,38,0.00,,,0.00,WUHU216DAVISWMX,2013-01-23 20:13:00,
2013-01-23 15:18:00,14.4,-6.8,30.13,WNW,291,2.0,7.0,38,0.00,,,0.00,WUHU216DAVISWMX,2013-01-23 20:18:00,
2013-01-23 15:23:00,14.3,-6.9,30.13,NW,311,5.0,10.0,38,0.00,,,0.00,WUHU216DAVISWMX,2013-01-23 20:23:00,
2013-01-23 15:28:00,14.0,-7.2,30.13,WNW,295,3.0,10.0,38,0.00,,,0.00,WUHU216DAVISWMX,2013-01-23 20:28:00,
2013-01-23 15:33:00,14.1,-7.1,30.13,WNW,285,2.0,9.0,38,0.00,,,0.00,WUHU216DAVISWMX,2013-01-23 20:33:00,
2013-01-23 15:38:00,14.1,-6.5,30.13,NW,314,2.0,5.0,39,0.00,,,0.00,WUHU216DAVISWMX,2013-01-23 20:38:00,
2013-01-23 15:43:00,13.8,-7.3,30.13,NNW,338,3.0,6.0,38,0.00,,,0.00,WUHU216DAVISWMX,2013-01-23 20:43:00,
2013-01-23 15:48:00,13.7,-6.9,30.13,NW,308,4.0,6.0,39,0.00,,,0.00,WUHU216DAVISWMX,2013-01-23 20:48:00,
2013-01-23 15:53:00,13.8,-7.3,30.13,North,359,3.0,4.0,38,0.00,,,0.00,WUHU216DAVISWMX,2013-01-23 20:53:00,
2013-01-23 15:58:00,13.8,-6.8,30.13,NNW,328,1.0,7.0,39,0.00,,,0.00,WUHU216DAVISWMX,2013-01-23 20:58:00,
2013-01-23 16:03:00,13.7,-6.9,30.13,NNW,333,1.0,7.0,39,0.00,,,0.00,WUHU216DAVISWMX,2013-01-23 21:03:00,
2013-01-23 16:08:00,13.7,-5.8,30.14,NW,324,1.0,6.0,41,0.00,,,0.00,WUHU216DAVISWMX,2013-01-23 21:08:00,
2013-01-23 16:13:00,13.6,-5.4,30.14,NNW,327,4.0,5.0,42,0.00,,,0.00,WUHU216DAVISWMX,2013-01-23 21:13:00,
2013-01-23 16:18:00,13.5,-5.0,30.13,WSW,255,3.0,5.0,43,0.00,,,0.00,WUHU216DAVISWMX,2013-01-23 21:18:00,
2013-01-23 16:23:00,13.3,-5.7,30.13,West,262,4.0,8.0,42,0.00,,,0.00,WUHU216DAVISWMX,2013-01-23 21:23:00,
2013-01-23 16:28:00,13.0,-5.5,30.13,NW,308,3.0,9.0,43,0.00,,,0.00,WUHU216DAVISWMX,2013-01-23 21:28:00,
2013-01-23 16:33:00,12.8,-6.1,30.13,NNW,340,1.0,9.0,42,0.00,,,0.00,WUHU216DAVISWMX,2013-01-23 21:33:00,
2013-01-23 16:38:00,12.8,-5.6,30.13,NNW,330,1.0,7.0,43,0.00,,,0.00,WUHU216DAVISWMX,2013-01-23 21:38:00,
2013-01-23 16:43:00,12.6,-5.3,30.13,WNW,295,1.0,4.0,44,0.00,,,0.00,WUHU216DAVISWMX,2013-01-23 21:43:00,
2013-01-23 16:48:00,12.5,-5.0,30.13,WNW,295,2.0,4.0,45,0.00,,,0.00,WUHU216DAVISWMX,2013-01-23 21:48:00,
2013-01-23 16:53:00,12.4,-5.0,30.13,NW,308,2.0,4.0,45,0.00,,,0.00,WUHU216DAVISWMX,2013-01-23 21:53:00,
2013-01-23 16:58:00,12.2,-5.2,30.13,NW,317,2.0,4.0,45,0.00,,,0.00,WUHU216DAVISWMX,2013-01-23 21:58:00,
2013-01-23 17:03:00,12.1,-5.3,30.13,NW,318,4.0,4.0,45,0.00,,,0.00,WUHU216DAVISWMX,2013-01-23 22:03:00,
2013-01-23 17:08:00,12.1,-5.3,30.12,NNW,335,2.0,4.0,45,0.00,,,0.00,WUHU216DAVISWMX,2013-01-23 22:08:00,
2013-01-23 17:13:00,12.0,-5.4,30.12,NW,323,2.0,4.0,45,0.00,,,0.00,WUHU216DAVISWMX,2013-01-23 22:13:00,
2013-01-23 17:18:00,11.7,-5.2,30.13,NW,323,2.0,4.0,46,0.00,,,0.00,WUHU216DAVISWMX,2013-01-23 22:18:00,
2013-01-23 17:23:00,11.7,-5.2,30.13,West,266,1.0,6.0,46,0.00,,,0.00,WUHU216DAVISWMX,2013-01-23 22:23:00,
2013-01-23 17:28:00,11.7,-5.2,30.13,NNW,332,2.0,6.0,46,0.00,,,0.00,WUHU216DAVISWMX,2013-01-23 22:28:00,
2013-01-23 17:33:00,11.5,-4.9,30.13,NW,307,1.0,5.0,47,0.00,,,0.00,WUHU216DAVISWMX,2013-01-23 22:33:00,
2013-01-23 17:38:00,11.5,-4.9,30.14,WSW,252,1.0,5.0,47,0.00,,,0.00,WUHU216DAVISWMX,2013-01-23 22:38:00,
2013-01-23 17:43:00,11.3,-5.1,30.14,NW,308,3.0,5.0,47,0.00,,,0.00,WUHU216DAVISWMX,2013-01-23 22:43:00,
2013-01-23 17:48:00,11.2,-4.8,30.14,West,270,3.0,5.0,48,0.00,,,0.00,WUHU216DAVISWMX,2013-01-23 22:48:00,
2013-01-23 17:53:00,11.0,-5.0,30.14,WNW,295,2.0,5.0,48,0.00,,,0.00,WUHU216DAVISWMX,2013-01-23 22:53:00,
2013-01-23 17:58:00,10.9,-5.0,30.14,NNW,344,2.0,5.0,48,0.00,,,0.00,WUHU216DAVISWMX,2013-01-23 22:58:00,
2013-01-23 18:03:00,10.9,-5.0,30.14,WNW,283,0.0,4.0,48,0.00,,,0.00,WUHU216DAVISWMX,2013-01-23 23:03:00,
2013-01-23 18:08:00,10.8,-5.1,30.14,West,279,2.0,4.0,48,0.00,,,0.00,WUHU216DAVISWMX,2013-01-23 23:08:00,
2013-01-23 18:13:00,10.7,-4.8,30.14,West,263,0.0,2.0,49,0.00,,,0.00,WUHU216DAVISWMX,2013-01-23 23:13:00,
2013-01-23 18:18:00,10.7,-4.8,30.14,WNW,284,1.0,4.0,49,0.00,,,0.00,WUHU216DAVISWMX,2013-01-23 23:18:00,
2013-01-23 18:23:00,10.7,-4.4,30.15,WNW,288,1.0,4.0,50,0.00,,,0.00,WUHU216DAVISWMX,2013-01-23 23:23:00,
2013-01-23 18:28:00,10.6,-4.9,30.15,NNW,327,2.0,5.0,49,0.00,,,0.00,WUHU216DAVISWMX,2013-01-23 23:28:00,
2013-01-23 18:33:00,10.5,-5.0,30.15,NNW,327,1.0,5.0,49,0.00,,,0.00,WUHU216DAVISWMX,2013-01-23 23:33:00,
2013-01-23 18:38:00,10.4,-5.1,30.15,NW,320,0.0,3.0,49,0.00,,,0.00,WUHU216DAVISWMX,2013-01-23 23:38:00,
2013-01-23 18:43:00,10.3,-4.7,30.15,NW,321,2.0,3.0,50,0.00,,,0.00,WUHU216DAVISWMX,2013-01-23 23:43:00,
2013-01-23 18:48:00,10.3,-4.7,30.15,NW,319,0.0,3.0,50,0.00,,,0.00,WUHU216DAVISWMX,2013-01-23 23:48:00,
2013-01-23 18:53:00,10.4,-4.6,30.15,NW,319,1.0,2.0,50,0.00,,,0.00,WUHU216DAVISWMX,2013-01-23 23:53:00,
2013-01-23 18:58:00,10.1,-4.9,30.15,NW,319,3.0,3.0,50,0.00,,,0.00,WUHU216DAVISWMX,2013-01-23 23:58:00,
2013-01-23 19:03:00,10.1,-4.9,30.15,NW,319,2.0,3.0,50,0.00,,,0.00,WUHU216DAVISWMX,2013-01-24 00:03:00,
2013-01-23 19:08:00,10.1,-4.9,30.15,NW,319,0.0,3.0,50,0.00,,,0.00,WUHU216DAVISWMX,2013-01-24 00:08:00,
2013-01-23 19:13:00,9.9,-5.1,30.15,NW,304,1.0,3.0,50,0.00,,,0.00,WUHU216DAVISWMX,2013-01-24 00:13:00,
2013-01-23 19:18:00,9.9,-5.1,30.15,NW,305,1.0,3.0,50,0.00,,,0.00,WUHU216DAVISWMX,2013-01-24 00:18:00,
2013-01-23 19:23:00,9.7,-5.3,30.15,WNW,294,3.0,3.0,50,0.00,,,0.00,WUHU216DAVISWMX,2013-01-24 00:23:00,
2013-01-23 19:28:00,9.7,-5.3,30.15,WNW,299,2.0,4.0,50,0.00,,,0.00,WUHU216DAVISWMX,2013-01-24 00:28:00,
2013-01-23 19:33:00,9.6,-5.4,30.15,WNW,299,0.0,4.0,50,0.00,,,0.00,WUHU216DAVISWMX,2013-01-24 00:33:00,
2013-01-23 19:38:00,9.5,-5.1,30.15,WNW,299,1.0,2.0,51,0.00,,,0.00,WUHU216DAVISWMX,2013-01-24 00:38:00,
2013-01-23 19:43:00,9.4,-4.7,30.15,WNW,299,1.0,2.0,52,0.00,,,0.00,WUHU216DAVISWMX,2013-01-24 00:43:00,
2013-01-23 19:48:00,9.5,-4.6,30.16,WNW,300,2.0,3.0,52,0.00,,,0.00,WUHU216DAVISWMX,2013-01-24 00:48:00,
2013-01-23 19:53:00,9.3,-4.8,30.16,WNW,300,2.0,3.0,52,0.00,,,0.00,WUHU216DAVISWMX,2013-01-24 00:53:00,
2013-01-23 19:58:00,9.4,-4.3,30.15,WNW,290,2.0,4.0,53,0.00,,,0.00,WUHU216DAVISWMX,2013-01-24 00:58:00,
2013-01-23 20:03:00,9.0,-5.1,30.16,WNW,294,1.0,4.0,52,0.00,,,0.00,WUHU216DAVISWMX,2013-01-24 01:03:00,
2013-01-23 20:08:00,9.0,-5.1,30.15,WNW,294,1.0,4.0,52,0.00,,,0.00,WUHU216DAVISWMX,2013-01-24 01:08:00,
2013-01-23 20:13:00,8.9,-5.2,30.15,WNW,294,1.0,4.0,52,0.00,,,0.00,WUHU216DAVISWMX,2013-01-24 01:13:00,
2013-01-23 20:19:00,8.9,-5.2,30.15,WNW,294,2.0,2.0,52,0.00,,,0.00,WUHU216DAVISWMX,2013-01-24 01:19:00,
2013-01-23 20:24:00,8.9,-4.8,30.16,WNW,294,1.0,2.0,53,0.00,,,0.00,WUHU216DAVISWMX,2013-01-24 01:24:00,
2013-01-23 20:29:00,8.8,-4.9,30.16,WNW,294,0.0,2.0,53,0.00,,,0.00,WUHU216DAVISWMX,2013-01-24 01:29:00,
2013-01-23 20:34:00,8.7,-5.0,30.16,West,279,2.0,4.0,53,0.00,,,0.00,WUHU216DAVISWMX,2013-01-24 01:34:00,
2013-01-23 20:39:00,8.8,-5.3,30.15,WNW,284,1.0,4.0,52,0.00,,,0.00,WUHU216DAVISWMX,2013-01-24 01:39:00,
2013-01-23 20:44:00,8.6,-5.5,30.16,NW,312,2.0,3.0,52,0.00,,,0.00,WUHU216DAVISWMX,2013-01-24 01:44:00,
2013-01-23 20:49:00,8.5,-5.6,30.16,NW,312,1.0,3.0,52,0.00,,,0.00,WUHU216DAVISWMX,2013-01-24 01:49:00,
2013-01-23 20:54:00,8.6,-5.5,30.16,NW,312,1.0,2.0,52,0.00,,,0.00,WUHU216DAVISWMX,2013-01-24 01:54:00,
2013-01-23 20:59:00,8.5,-5.2,30.16,NW,312,1.0,2.0,53,0.00,,,0.00,WUHU216DAVISWMX,2013-01-24 01:59:00,
2013-01-23 21:04:00,8.2,-5.0,30.15,NW,312,0.0,2.0,54,0.00,,,0.00,WUHU216DAVISWMX,2013-01-24 02:04:00,
2013-01-23 21:09:00,8.1,-5.1,30.16,NW,311,1.0,2.0,54,0.00,,,0.00,WUHU216DAVISWMX,2013-01-24 02:09:00,
2013-01-23 21:14:00,7.9,-4.9,30.16,NW,313,2.0,3.0,55,0.00,,,0.00,WUHU216DAVISWMX,2013-01-24 02:14:00,
2013-01-23 21:19:00,7.8,-5.4,30.15,NW,313,2.0,4.0,54,0.00,,,0.00,WUHU216DAVISWMX,2013-01-24 02:19:00,
2013-01-23 21:24:00,7.8,-5.4,30.16,NW,313,1.0,4.0,54,0.00,,,0.00,WUHU216DAVISWMX,2013-01-24 02:24:00,
2013-01-23 21:29:00,7.7,-5.1,30.16,NW,313,2.0,3.0,55,0.00,,,0.00,WUHU216DAVISWMX,2013-01-24 02:29:00,
2013-01-23 21:34:00,7.7,-5.5,30.16,NW,313,2.0,3.0,54,0.00,,,0.00,WUHU216DAVISWMX,2013-01-24 02:34:00,
2013-01-23 21:39:00,7.6,-5.2,30.15,NW,313,0.0,3.0,55,0.00,,,0.00,WUHU216DAVISWMX,2013-01-24 02:39:00,
2013-01-23 21:44:00,7.5,-5.3,30.15,NW,313,1.0,3.0,55,0.00,,,0.00,WUHU216DAVISWMX,2013-01-24 02:44:00,
2013-01-23 21:49:00,7.5,-5.3,30.15,WNW,295,1.0,4.0,55,0.00,,,0.00,WUHU216DAVISWMX,2013-01-24 02:49:00,
2013-01-23 21:54:00,7.5,-5.3,30.15,SW,229,1.0,4.0,55,0.00,,,0.00,WUHU216DAVISWMX,2013-01-24 02:54:00,
2013-01-23 21:59:00,7.4,-5.8,30.15,NW,310,0.0,3.0,54,0.00,,,0.00,WUHU216DAVISWMX,2013-01-24 02:59:00,
2013-01-23 22:04:00,7.4,-5.8,30.15,NW,308,2.0,3.0,54,0.00,,,0.00,WUHU216DAVISWMX,2013-01-24 03:04:00,
2013-01-23 22:09:00,7.4,-5.4,30.15,NNW,347,0.0,2.0,55,0.00,,,0.00,WUHU216DAVISWMX,2013-01-24 03:09:00,
2013-01-23 22:14:00,7.4,-5.4,30.16,NNW,347,0.0,2.0,55,0.00,,,0.00,WUHU216DAVISWMX,2013-01-24 03:14:00,
2013-01-23 22:19:00,7.6,-4.5,30.16,NNW,347,0.0,2.0,57,0.00,,,0.00,WUHU216DAVISWMX,2013-01-24 03:19:00,
2013-01-23 22:24:00,7.8,-4.3,30.16,NNW,347,0.0,2.0,57,0.00,,,0.00,WUHU216DAVISWMX,2013-01-24 03:24:00,
2013-01-23 22:29:00,7.5,-5.3,30.16,NNW,347,0.0,1.0,55,0.00,,,0.00,WUHU216DAVISWMX,2013-01-24 03:29:00,
2013-01-23 22:34:00,7.5,-4.6,30.16,NNW,347,0.0,0.0,57,0.00,,,0.00,WUHU216DAVISWMX,2013-01-24 03:34:00,
2013-01-23 22:39:00,7.3,-5.1,30.16,NNW,347,0.0,0.0,56,0.00,,,0.00,WUHU216DAVISWMX,2013-01-24 03:39:00,
2013-01-23 22:44:00,7.0,-5.4,30.16,NNW,347,0.0,0.0,56,0.00,,,0.00,WUHU216DAVISWMX,2013-01-24 03:44:00,
2013-01-23 22:49:00,6.7,-5.3,30.16,NNW,347,0.0,1.0,57,0.00,,,0.00,WUHU216DAVISWMX,2013-01-24 03:49:00,
2013-01-23 22:54:00,6.7,-5.3,30.16,NNW,347,1.0,2.0,57,0.00,,,0.00,WUHU216DAVISWMX,2013-01-24 03:54:00,
2013-01-23 22:59:00,6.5,-5.1,30.16,NNW,347,0.0,2.0,58,0.00,,,0.00,WUHU216DAVISWMX,2013-01-24 03:59:00,
2013-01-23 23:04:00,6.3,-5.3,30.16,NNW,347,0.0,2.0,58,0.00,,,0.00,WUHU216DAVISWMX,2013-01-24 04:04:00,
2013-01-23 23:09:00,6.3,-5.3,30.17,NNW,347,0.0,0.0,58,0.00,,,0.00,WUHU216DAVISWMX,2013-01-24 04:09:00,
2013-01-23 23:14:00,6.2,-5.4,30.17,NNW,347,0.0,0.0,58,0.00,,,0.00,WUHU216DAVISWMX,2013-01-24 04:14:00,
2013-01-23 23:19:00,6.0,-5.2,30.17,NNW,347,0.0,0.0,59,0.00,,,0.00,WUHU216DAVISWMX,2013-01-24 04:19:00,
2013-01-23 23:24:00,5.7,-5.9,30.17,NNW,347,0.0,0.0,58,0.00,,,0.00,WUHU216DAVISWMX,2013-01-24 04:24:00,
2013-01-23 23:29:00,5.6,-5.6,30.17,NNW,347,0.0,0.0,59,0.00,,,0.00,WUHU216DAVISWMX,2013-01-24 04:29:00,
2013-01-23 23:34:00,5.5,-5.4,30.17,NNW,347,0.0,0.0,60,0.00,,,0.00,WUHU216DAVISWMX,2013-01-24 04:34:00,
2013-01-23 23:39:00,5.3,-5.9,30.17,NNW,347,0.0,0.0,59,0.00,,,0.00,WUHU216DAVISWMX,2013-01-24 04:39:00,
2013-01-23 23:44:00,5.2,-5.3,30.17,NNW,347,0.0,1.0,61,0.00,,,0.00,WUHU216DAVISWMX,2013-01-24 04:44:00,
2013-01-23 23:49:00,5.0,-5.5,30.17,NNW,347,0.0,2.0,61,0.00,,,0.00,WUHU216DAVISWMX,2013-01-24 04:49:00,
2013-01-23 23:54:00,4.9,-5.6,30.17,NNW,347,0.0,2.0,61,0.00,,,0.00,WUHU216DAVISWMX,2013-01-24 04:54:00,
2013-01-23 23:59:00,4.9,-5.2,30.17,NNW,347,0.0,1.0,62,0.00,,,0.00,WUHU216DAVISWMX,2013-01-24 04:59:00,